sensor_id;sensor_type;location;lat;lon;timestamp;pressure;altitude;pressure_sealevel;temperature;humidity
47897;BME280;39629;51.400;5.494;2023-05-27T00:03:18;102724.94;;;9.37;100.00
47897;BME280;39629;51.400;5.494;2023-05-27T00:08:20;102730.81;;;9.30;100.00
47897;BME280;39629;51.400;5.494;2023-05-27T00:13:23;102720.94;;;9.23;100.00
47897;BME280;39629;51.400;5.494;2023-05-27T00:18:24;102722.59;;;9.19;100.00
47897;BME280;39629;51.400;5.494;2023-05-27T00:23:26;102725.53;;;9.02;100.00
47897;BME280;39629;51.400;5.494;2023-05-27T00:28:29;102729.88;;;9.02;100.00
47897;BME280;39629;51.400;5.494;2023-05-27T00:33:31;102732.22;;;8.94;100.00
47897;BME280;39629;51.400;5.494;2023-05-27T00:38:33;102721.50;;;8.88;100.00
47897;BME280;39629;51.400;5.494;2023-05-27T00:43:37;102720.38;;;8.81;100.00
47897;BME280;39629;51.400;5.494;2023-05-27T00:48:38;102726.28;;;8.74;100.00
47897;BME280;39629;51.400;5.494;2023-05-27T00:53:42;102720.00;;;8.69;100.00
47897;BME280;39629;51.400;5.494;2023-05-27T00:58:46;102721.44;;;8.61;100.00
47897;BME280;39629;51.400;5.494;2023-05-27T01:03:48;102725.63;;;8.56;100.00
47897;BME280;39629;51.400;5.494;2023-05-27T01:08:58;102714.69;;;8.43;100.00
47897;BME280;39629;51.400;5.494;2023-05-27T01:14:08;102708.16;;;8.32;100.00
47897;BME280;39629;51.400;5.494;2023-05-27T01:19:13;102713.06;;;8.23;100.00
47897;BME280;39629;51.400;5.494;2023-05-27T01:24:17;102709.47;;;8.19;100.00
47897;BME280;39629;51.400;5.494;2023-05-27T01:29:19;102695.94;;;8.08;100.00
47897;BME280;39629;51.400;5.494;2023-05-27T01:34:25;102693.94;;;8.01;100.00
47897;BME280;39629;51.400;5.494;2023-05-27T01:39:32;102702.22;;;7.89;100.00
47897;BME280;39629;51.400;5.494;2023-05-27T01:44:33;102702.75;;;7.80;100.00
47897;BME280;39629;51.400;5.494;2023-05-27T01:49:36;102691.13;;;7.74;100.00
47897;BME280;39629;51.400;5.494;2023-05-27T01:54:39;102691.03;;;7.71;100.00
47897;BME280;39629;51.400;5.494;2023-05-27T01:59:42;102682.19;;;7.69;100.00
47897;BME280;39629;51.400;5.494;2023-05-27T02:04:44;102686.06;;;7.56;100.00
47897;BME280;39629;51.400;5.494;2023-05-27T02:09:47;102680.13;;;7.37;100.00
47897;BME280;39629;51.400;5.494;2023-05-27T02:14:48;102677.28;;;7.32;100.00
47897;BME280;39629;51.400;5.494;2023-05-27T02:19:51;102681.75;;;7.35;100.00
47897;BME280;39629;51.400;5.494;2023-05-27T02:24:54;102680.63;;;7.28;100.00
47897;BME280;39629;51.400;5.494;2023-05-27T02:29:55;102689.38;;;7.29;100.00
47897;BME280;39629;51.400;5.494;2023-05-27T02:34:57;102688.94;;;7.18;100.00
47897;BME280;39629;51.400;5.494;2023-05-27T02:40:00;102683.66;;;7.17;100.00
47897;BME280;39629;51.400;5.494;2023-05-27T02:45:03;102680.72;;;7.09;100.00
47897;BME280;39629;51.400;5.494;2023-05-27T02:50:06;102684.03;;;7.05;100.00
47897;BME280;39629;51.400;5.494;2023-05-27T02:55:09;102687.28;;;6.99;100.00
47897;BME280;39629;51.400;5.494;2023-05-27T03:00:12;102693.91;;;6.91;100.00
47897;BME280;39629;51.400;5.494;2023-05-27T03:05:15;102692.81;;;6.86;100.00
47897;BME280;39629;51.400;5.494;2023-05-27T03:10:18;102698.06;;;6.86;100.00
47897;BME280;39629;51.400;5.494;2023-05-27T03:15:19;102690.66;;;6.75;100.00
47897;BME280;39629;51.400;5.494;2023-05-27T03:20:22;102693.28;;;6.75;100.00
47897;BME280;39629;51.400;5.494;2023-05-27T03:25:26;102687.91;;;6.72;100.00
47897;BME280;39629;51.400;5.494;2023-05-27T03:30:27;102693.78;;;6.67;100.00
47897;BME280;39629;51.400;5.494;2023-05-27T03:35:31;102687.97;;;6.74;100.00
47897;BME280;39629;51.400;5.494;2023-05-27T03:40:34;102690.59;;;6.74;100.00
47897;BME280;39629;51.400;5.494;2023-05-27T03:45:39;102682.56;;;6.69;100.00
47897;BME280;39629;51.400;5.494;2023-05-27T03:50:41;102682.47;;;6.68;100.00
47897;BME280;39629;51.400;5.494;2023-05-27T03:55:44;102673.88;;;6.70;100.00
47897;BME280;39629;51.400;5.494;2023-05-27T04:00:46;102676.41;;;6.69;100.00
47897;BME280;39629;51.400;5.494;2023-05-27T04:05:49;102669.47;;;6.69;100.00
47897;BME280;39629;51.400;5.494;2023-05-27T04:10:52;102674.25;;;6.79;100.00
47897;BME280;39629;51.400;5.494;2023-05-27T04:15:54;102668.50;;;6.88;100.00
47897;BME280;39629;51.400;5.494;2023-05-27T04:20:57;102667.50;;;7.06;100.00
47897;BME280;39629;51.400;5.494;2023-05-27T04:26:00;102671.16;;;7.09;100.00
47897;BME280;39629;51.400;5.494;2023-05-27T04:31:06;102669.88;;;7.43;100.00
47897;BME280;39629;51.400;5.494;2023-05-27T04:36:17;102662.06;;;7.45;100.00
47897;BME280;39629;51.400;5.494;2023-05-27T04:41:37;102655.25;;;7.48;100.00
47897;BME280;39629;51.400;5.494;2023-05-27T04:46:42;102662.00;;;7.66;100.00
47897;BME280;39629;51.400;5.494;2023-05-27T04:51:44;102647.66;;;8.03;100.00
47897;BME280;39629;51.400;5.494;2023-05-27T04:56:50;102633.50;;;8.74;100.00
47897;BME280;39629;51.400;5.494;2023-05-27T05:01:56;102635.19;;;8.97;100.00
47897;BME280;39629;51.400;5.494;2023-05-27T05:07:34;102632.69;;;9.57;100.00
47897;BME280;39629;51.400;5.494;2023-05-27T05:12:41;102628.63;;;9.68;100.00
47897;BME280;39629;51.400;5.494;2023-05-27T05:17:42;102623.47;;;10.35;100.00
47897;BME280;39629;51.400;5.494;2023-05-27T05:22:44;102625.25;;;10.69;100.00
47897;BME280;39629;51.400;5.494;2023-05-27T05:27:47;102621.03;;;10.76;100.00
47897;BME280;39629;51.400;5.494;2023-05-27T05:32:49;102619.91;;;11.39;100.00
47897;BME280;39629;51.400;5.494;2023-05-27T05:37:51;102610.97;;;11.74;100.00
47897;BME280;39629;51.400;5.494;2023-05-27T05:42:55;102600.06;;;12.00;100.00
47897;BME280;39629;51.400;5.494;2023-05-27T05:47:57;102601.53;;;11.85;100.00
47897;BME280;39629;51.400;5.494;2023-05-27T05:53:04;102614.00;;;12.40;100.00
47897;BME280;39629;51.400;5.494;2023-05-27T05:58:07;102599.22;;;12.47;100.00
47897;BME280;39629;51.400;5.494;2023-05-27T06:03:09;102603.28;;;11.85;100.00
47897;BME280;39629;51.400;5.494;2023-05-27T06:08:17;102602.94;;;12.12;100.00
47897;BME280;39629;51.400;5.494;2023-05-27T06:13:31;102599.47;;;12.62;100.00
47897;BME280;39629;51.400;5.494;2023-05-27T06:18:33;102592.41;;;13.19;100.00
47897;BME280;39629;51.400;5.494;2023-05-27T06:23:35;102595.13;;;13.88;100.00
47897;BME280;39629;51.400;5.494;2023-05-27T06:28:51;102581.06;;;13.92;100.00
47897;BME280;39629;51.400;5.494;2023-05-27T06:33:53;102596.25;;;12.80;100.00
47897;BME280;39629;51.400;5.494;2023-05-27T06:38:56;102590.28;;;13.56;100.00
47897;BME280;39629;51.400;5.494;2023-05-27T06:43:59;102576.13;;;13.54;100.00
47897;BME280;39629;51.400;5.494;2023-05-27T06:49:14;102579.78;;;14.42;100.00
47897;BME280;39629;51.400;5.494;2023-05-27T06:54:16;102581.34;;;14.23;100.00
47897;BME280;39629;51.400;5.494;2023-05-27T06:59:20;102582.81;;;14.93;100.00
47897;BME280;39629;51.400;5.494;2023-05-27T07:04:22;102571.44;;;15.08;100.00
47897;BME280;39629;51.400;5.494;2023-05-27T07:09:28;102568.00;;;15.22;100.00
47897;BME280;39629;51.400;5.494;2023-05-27T07:14:31;102566.44;;;15.67;100.00
47897;BME280;39629;51.400;5.494;2023-05-27T07:19:33;102570.91;;;15.76;100.00
47897;BME280;39629;51.400;5.494;2023-05-27T07:24:39;102560.28;;;15.76;100.00
47897;BME280;39629;51.400;5.494;2023-05-27T07:29:42;102557.66;;;16.00;100.00
47897;BME280;39629;51.400;5.494;2023-05-27T07:35:02;102547.97;;;16.23;100.00
47897;BME280;39629;51.400;5.494;2023-05-27T07:40:07;102546.97;;;15.60;100.00
47897;BME280;39629;51.400;5.494;2023-05-27T07:45:13;102548.00;;;16.37;100.00
47897;BME280;39629;51.400;5.494;2023-05-27T07:50:16;102532.00;;;17.06;100.00
47897;BME280;39629;51.400;5.494;2023-05-27T07:55:23;102534.53;;;17.42;100.00
47897;BME280;39629;51.400;5.494;2023-05-27T08:00:26;102530.31;;;16.52;100.00
47897;BME280;39629;51.400;5.494;2023-05-27T08:05:27;102523.81;;;17.62;100.00
47897;BME280;39629;51.400;5.494;2023-05-27T08:11:04;102523.88;;;17.32;100.00
47897;BME280;39629;51.400;5.494;2023-05-27T08:16:35;102511.41;;;18.72;100.00
47897;BME280;39629;51.400;5.494;2023-05-27T08:21:47;102495.44;;;17.58;100.00
47897;BME280;39629;51.400;5.494;2023-05-27T08:27:14;102489.72;;;18.15;100.00
47897;BME280;39629;51.400;5.494;2023-05-27T08:32:32;102484.47;;;18.02;100.00
47897;BME280;39629;51.400;5.494;2023-05-27T08:37:34;102477.00;;;18.51;100.00
47897;BME280;39629;51.400;5.494;2023-05-27T08:42:37;102468.69;;;18.80;100.00
47897;BME280;39629;51.400;5.494;2023-05-27T08:47:42;102454.53;;;18.73;100.00
47897;BME280;39629;51.400;5.494;2023-05-27T08:52:53;102464.59;;;18.40;100.00
47897;BME280;39629;51.400;5.494;2023-05-27T08:57:57;102449.44;;;20.87;100.00
47897;BME280;39629;51.400;5.494;2023-05-27T09:03:03;102444.03;;;20.90;100.00
47897;BME280;39629;51.400;5.494;2023-05-27T09:08:08;102431.69;;;20.83;92.09
47897;BME280;39629;51.400;5.494;2023-05-27T09:13:09;102429.00;;;20.39;96.70
47897;BME280;39629;51.400;5.494;2023-05-27T09:18:12;102438.31;;;19.59;96.22
47897;BME280;39629;51.400;5.494;2023-05-27T09:23:14;102430.19;;;19.67;98.28
47897;BME280;39629;51.400;5.494;2023-05-27T09:28:20;102420.06;;;20.86;95.58
47897;BME280;39629;51.400;5.494;2023-05-27T09:33:23;102411.94;;;20.89;95.08
47897;BME280;39629;51.400;5.494;2023-05-27T09:38:28;102411.84;;;21.73;93.69
47897;BME280;39629;51.400;5.494;2023-05-27T09:43:30;102399.00;;;21.50;88.81
47897;BME280;39629;51.400;5.494;2023-05-27T09:48:33;102404.16;;;21.95;87.87
47897;BME280;39629;51.400;5.494;2023-05-27T09:53:36;102393.03;;;20.98;68.92
47897;BME280;39629;51.400;5.494;2023-05-27T09:58:38;102379.22;;;21.57;71.46
47897;BME280;39629;51.400;5.494;2023-05-27T10:03:43;102388.16;;;21.17;66.81
47897;BME280;39629;51.400;5.494;2023-05-27T10:08:44;102385.56;;;21.53;69.01
47897;BME280;39629;51.400;5.494;2023-05-27T10:13:50;102371.22;;;21.90;70.17
47897;BME280;39629;51.400;5.494;2023-05-27T10:18:56;102371.09;;;21.60;65.90
47897;BME280;39629;51.400;5.494;2023-05-27T10:23:59;102356.72;;;22.34;55.47
47897;BME280;39629;51.400;5.494;2023-05-27T10:29:08;102353.78;;;23.03;53.83
47897;BME280;39629;51.400;5.494;2023-05-27T10:34:11;102344.72;;;23.07;51.81
47897;BME280;39629;51.400;5.494;2023-05-27T10:39:14;102336.44;;;22.55;41.51
47897;BME280;39629;51.400;5.494;2023-05-27T10:44:26;102339.88;;;23.46;40.04
47897;BME280;39629;51.400;5.494;2023-05-27T10:49:33;102328.19;;;22.61;39.42
47897;BME280;39629;51.400;5.494;2023-05-27T10:54:37;102321.81;;;23.52;37.56
47897;BME280;39629;51.400;5.494;2023-05-27T10:59:47;102312.78;;;22.06;38.55
47897;BME280;39629;51.400;5.494;2023-05-27T11:04:51;102309.22;;;21.71;38.18
47897;BME280;39629;51.400;5.494;2023-05-27T11:09:54;102303.88;;;22.04;38.08
47897;BME280;39629;51.400;5.494;2023-05-27T11:14:55;102304.25;;;23.13;38.18
47897;BME280;39629;51.400;5.494;2023-05-27T11:19:58;102294.88;;;22.68;41.05
47897;BME280;39629;51.400;5.494;2023-05-27T11:25:00;102281.06;;;22.52;39.11
47897;BME280;39629;51.400;5.494;2023-05-27T11:30:07;102279.25;;;23.11;39.44
47897;BME280;39629;51.400;5.494;2023-05-27T11:35:15;102276.25;;;22.34;37.85
47897;BME280;39629;51.400;5.494;2023-05-27T11:40:17;102262.00;;;22.91;36.59
47897;BME280;39629;51.400;5.494;2023-05-27T11:45:20;102258.03;;;23.03;36.90
47897;BME280;39629;51.400;5.494;2023-05-27T11:50:24;102247.59;;;23.74;36.34
47897;BME280;39629;51.400;5.494;2023-05-27T11:55:30;102234.63;;;23.86;36.20
47897;BME280;39629;51.400;5.494;2023-05-27T12:00:31;102238.84;;;22.59;37.57
47897;BME280;39629;51.400;5.494;2023-05-27T12:05:34;102235.34;;;23.39;37.39
47897;BME280;39629;51.400;5.494;2023-05-27T12:10:36;102228.59;;;22.72;35.88
47897;BME280;39629;51.400;5.494;2023-05-27T12:15:37;102226.44;;;23.38;38.04
47897;BME280;39629;51.400;5.494;2023-05-27T12:20:40;102215.00;;;23.57;34.93
47897;BME280;39629;51.400;5.494;2023-05-27T12:25:42;102210.41;;;23.35;35.61
47897;BME280;39629;51.400;5.494;2023-05-27T12:30:43;102207.72;;;23.08;36.29
47897;BME280;39629;51.400;5.494;2023-05-27T12:35:48;102192.13;;;23.72;35.59
47897;BME280;39629;51.400;5.494;2023-05-27T12:40:51;102182.41;;;23.68;33.86
47897;BME280;39629;51.400;5.494;2023-05-27T12:45:52;102171.66;;;23.68;33.85
47897;BME280;39629;51.400;5.494;2023-05-27T12:50:55;102174.28;;;23.69;35.23
47897;BME280;39629;51.400;5.494;2023-05-27T12:55:57;102163.91;;;23.33;34.32
47897;BME280;39629;51.400;5.494;2023-05-27T13:00:59;102159.84;;;24.43;32.91
47897;BME280;39629;51.400;5.494;2023-05-27T13:06:02;102161.38;;;24.03;32.17
47897;BME280;39629;51.400;5.494;2023-05-27T13:11:04;102147.72;;;24.55;33.28
47897;BME280;39629;51.400;5.494;2023-05-27T13:16:06;102140.94;;;25.09;32.93
47897;BME280;39629;51.400;5.494;2023-05-27T13:21:09;102139.75;;;23.33;32.24
47897;BME280;39629;51.400;5.494;2023-05-27T13:26:11;102134.88;;;23.70;32.73
47897;BME280;39629;51.400;5.494;2023-05-27T13:31:13;102131.53;;;24.10;31.86
47897;BME280;39629;51.400;5.494;2023-05-27T13:36:16;102129.06;;;24.04;31.89
47897;BME280;39629;51.400;5.494;2023-05-27T13:41:17;102110.94;;;25.18;35.69
47897;BME280;39629;51.400;5.494;2023-05-27T13:46:19;102109.63;;;23.48;33.49
47897;BME280;39629;51.400;5.494;2023-05-27T13:51:22;102114.88;;;24.46;34.94
47897;BME280;39629;51.400;5.494;2023-05-27T13:56:24;102087.59;;;24.76;32.15
47897;BME280;39629;51.400;5.494;2023-05-27T14:01:25;102095.28;;;23.97;31.61
47897;BME280;39629;51.400;5.494;2023-05-27T14:06:28;102082.00;;;24.60;34.68
47897;BME280;39629;51.400;5.494;2023-05-27T14:11:30;102070.50;;;24.77;32.13
47897;BME280;39629;51.400;5.494;2023-05-27T14:16:31;102063.00;;;25.27;32.83
47897;BME280;39629;51.400;5.494;2023-05-27T14:21:34;102066.09;;;23.88;31.74
47897;BME280;39629;51.400;5.494;2023-05-27T14:26:36;102061.66;;;24.31;33.93
47897;BME280;39629;51.400;5.494;2023-05-27T14:31:37;102063.41;;;23.88;31.32
47897;BME280;39629;51.400;5.494;2023-05-27T14:36:40;102048.31;;;24.28;32.76
47897;BME280;39629;51.400;5.494;2023-05-27T14:41:42;102052.22;;;24.86;33.43
47897;BME280;39629;51.400;5.494;2023-05-27T14:46:44;102039.31;;;24.29;31.03
47897;BME280;39629;51.400;5.494;2023-05-27T14:51:46;102044.19;;;24.84;31.95
47897;BME280;39629;51.400;5.494;2023-05-27T14:56:48;102042.72;;;23.66;30.27
47897;BME280;39629;51.400;5.494;2023-05-27T15:01:50;102037.59;;;23.84;32.13
47897;BME280;39629;51.400;5.494;2023-05-27T15:06:53;102028.56;;;24.29;33.45
47897;BME280;39629;51.400;5.494;2023-05-27T15:11:54;102021.19;;;24.34;33.38
47897;BME280;39629;51.400;5.494;2023-05-27T15:16:56;102024.59;;;23.95;33.19
47897;BME280;39629;51.400;5.494;2023-05-27T15:21:59;102020.50;;;23.61;30.64
47897;BME280;39629;51.400;5.494;2023-05-27T15:27:01;102016.25;;;24.01;31.67
47897;BME280;39629;51.400;5.494;2023-05-27T15:32:04;101994.94;;;24.19;31.87
47897;BME280;39629;51.400;5.494;2023-05-27T15:37:07;102001.81;;;24.04;31.57
47897;BME280;39629;51.400;5.494;2023-05-27T15:42:09;102002.81;;;23.79;33.15
47897;BME280;39629;51.400;5.494;2023-05-27T15:47:10;101995.56;;;24.25;32.57
47897;BME280;39629;51.400;5.494;2023-05-27T15:52:13;101993.88;;;24.23;33.97
47897;BME280;39629;51.400;5.494;2023-05-27T15:57:15;101996.22;;;23.64;33.39
47897;BME280;39629;51.400;5.494;2023-05-27T16:02:17;101992.59;;;23.41;33.70
47897;BME280;39629;51.400;5.494;2023-05-27T16:07:20;101988.38;;;24.04;33.72
47897;BME280;39629;51.400;5.494;2023-05-27T16:12:22;101978.41;;;23.61;33.73
47897;BME280;39629;51.400;5.494;2023-05-27T16:17:23;101980.50;;;23.77;33.07
47897;BME280;39629;51.400;5.494;2023-05-27T16:22:30;101979.47;;;23.34;33.80
47897;BME280;39629;51.400;5.494;2023-05-27T16:27:31;101966.38;;;23.48;34.47
47897;BME280;39629;51.400;5.494;2023-05-27T16:32:33;101970.97;;;23.44;35.09
47897;BME280;39629;51.400;5.494;2023-05-27T16:37:36;101959.03;;;23.29;33.58
47897;BME280;39629;51.400;5.494;2023-05-27T16:42:38;101946.34;;;23.33;34.97
47897;BME280;39629;51.400;5.494;2023-05-27T16:47:39;101955.47;;;23.05;34.07
47897;BME280;39629;51.400;5.494;2023-05-27T16:52:42;101952.25;;;22.95;34.62
47897;BME280;39629;51.400;5.494;2023-05-27T16:57:44;101956.50;;;22.76;35.48
47897;BME280;39629;51.400;5.494;2023-05-27T17:02:45;101948.84;;;22.65;37.34
47897;BME280;39629;51.400;5.494;2023-05-27T17:07:48;101940.63;;;22.44;35.00
47897;BME280;39629;51.400;5.494;2023-05-27T17:12:50;101935.78;;;22.56;37.61
47897;BME280;39629;51.400;5.494;2023-05-27T17:17:52;101937.13;;;22.17;35.74
47897;BME280;39629;51.400;5.494;2023-05-27T17:22:55;101937.31;;;22.11;34.83
47897;BME280;39629;51.400;5.494;2023-05-27T17:27:56;101928.59;;;22.04;37.23
47897;BME280;39629;51.400;5.494;2023-05-27T17:32:58;101933.41;;;21.93;37.27
47897;BME280;39629;51.400;5.494;2023-05-27T17:38:01;101936.09;;;21.93;38.32
47897;BME280;39629;51.400;5.494;2023-05-27T17:43:04;101934.84;;;21.76;38.42
47897;BME280;39629;51.400;5.494;2023-05-27T17:48:06;101928.44;;;21.81;38.52
47897;BME280;39629;51.400;5.494;2023-05-27T17:53:12;101927.63;;;21.50;38.53
47897;BME280;39629;51.400;5.494;2023-05-27T17:58:14;101931.47;;;21.41;39.46
47897;BME280;39629;51.400;5.494;2023-05-27T18:03:15;101929.06;;;21.32;39.77
47897;BME280;39629;51.400;5.494;2023-05-27T18:08:18;101925.03;;;21.19;39.12
47897;BME280;39629;51.400;5.494;2023-05-27T18:13:20;101932.16;;;21.20;40.29
47897;BME280;39629;51.400;5.494;2023-05-27T18:18:22;101930.88;;;21.00;41.48
47897;BME280;39629;51.400;5.494;2023-05-27T18:23:25;101934.06;;;20.83;41.61
47897;BME280;39629;51.400;5.494;2023-05-27T18:28:26;101933.56;;;20.69;42.14
47897;BME280;39629;51.400;5.494;2023-05-27T18:33:28;101934.19;;;20.46;43.09
47897;BME280;39629;51.400;5.494;2023-05-27T18:38:32;101936.09;;;20.40;42.46
47897;BME280;39629;51.400;5.494;2023-05-27T18:43:35;101929.75;;;20.08;44.42
47897;BME280;39629;51.400;5.494;2023-05-27T18:48:36;101932.13;;;19.85;45.04
47897;BME280;39629;51.400;5.494;2023-05-27T18:53:39;101934.34;;;19.67;45.71
47897;BME280;39629;51.400;5.494;2023-05-27T18:58:42;101935.69;;;19.46;45.96
47897;BME280;39629;51.400;5.494;2023-05-27T19:03:43;101938.72;;;19.29;46.15
47897;BME280;39629;51.400;5.494;2023-05-27T19:08:46;101933.81;;;19.09;46.93
47897;BME280;39629;51.400;5.494;2023-05-27T19:13:48;101948.41;;;18.91;47.55
47897;BME280;39629;51.400;5.494;2023-05-27T19:18:50;101948.00;;;18.66;48.88
47897;BME280;39629;51.400;5.494;2023-05-27T19:23:54;101946.81;;;18.31;49.89
47897;BME280;39629;51.400;5.494;2023-05-27T19:28:56;101943.50;;;18.18;50.45
47897;BME280;39629;51.400;5.494;2023-05-27T19:33:58;101946.56;;;17.93;50.80
47897;BME280;39629;51.400;5.494;2023-05-27T19:39:01;101953.84;;;17.82;51.02
47897;BME280;39629;51.400;5.494;2023-05-27T19:44:03;101954.16;;;17.59;52.01
47897;BME280;39629;51.400;5.494;2023-05-27T19:49:04;101961.56;;;17.33;53.42
47897;BME280;39629;51.400;5.494;2023-05-27T19:54:07;101964.47;;;17.16;53.86
47897;BME280;39629;51.400;5.494;2023-05-27T19:59:09;101965.63;;;16.91;56.07
47897;BME280;39629;51.400;5.494;2023-05-27T20:04:12;101963.25;;;16.66;58.24
47897;BME280;39629;51.400;5.494;2023-05-27T20:09:15;101964.41;;;16.37;62.12
47897;BME280;39629;51.400;5.494;2023-05-27T20:14:16;101957.56;;;16.05;68.49
47897;BME280;39629;51.400;5.494;2023-05-27T20:19:18;101958.69;;;15.72;70.33
47897;BME280;39629;51.400;5.494;2023-05-27T20:24:21;101967.56;;;15.63;70.42
47897;BME280;39629;51.400;5.494;2023-05-27T20:29:23;101967.69;;;15.44;72.34
47897;BME280;39629;51.400;5.494;2023-05-27T20:34:24;101964.28;;;15.16;83.73
47897;BME280;39629;51.400;5.494;2023-05-27T20:39:27;101967.03;;;14.67;97.65
47897;BME280;39629;51.400;5.494;2023-05-27T20:44:29;101966.19;;;14.51;100.00
47897;BME280;39629;51.400;5.494;2023-05-27T20:49:30;101955.59;;;14.51;100.00
47897;BME280;39629;51.400;5.494;2023-05-27T20:54:34;101961.78;;;14.26;100.00
47897;BME280;39629;51.400;5.494;2023-05-27T20:59:36;101961.75;;;13.89;100.00
47897;BME280;39629;51.400;5.494;2023-05-27T21:04:38;101968.81;;;13.93;100.00
47897;BME280;39629;51.400;5.494;2023-05-27T21:09:42;101952.94;;;13.87;100.00
47897;BME280;39629;51.400;5.494;2023-05-27T21:14:43;101950.19;;;13.67;100.00
47897;BME280;39629;51.400;5.494;2023-05-27T21:19:45;101948.41;;;13.44;100.00
47897;BME280;39629;51.400;5.494;2023-05-27T21:24:48;101950.94;;;13.21;100.00
47897;BME280;39629;51.400;5.494;2023-05-27T21:29:50;101947.44;;;13.22;100.00
47897;BME280;39629;51.400;5.494;2023-05-27T21:34:52;101950.88;;;13.09;100.00
47897;BME280;39629;51.400;5.494;2023-05-27T21:39:55;101949.09;;;12.99;100.00
47897;BME280;39629;51.400;5.494;2023-05-27T21:44:56;101949.03;;;12.89;100.00
47897;BME280;39629;51.400;5.494;2023-05-27T21:49:58;101943.66;;;12.69;100.00
47897;BME280;39629;51.400;5.494;2023-05-27T21:55:01;101941.78;;;12.51;100.00
47897;BME280;39629;51.400;5.494;2023-05-27T22:00:03;101937.34;;;12.44;100.00
47897;BME280;39629;51.400;5.494;2023-05-27T22:05:06;101934.63;;;12.41;100.00
47897;BME280;39629;51.400;5.494;2023-05-27T22:10:09;101939.88;;;12.35;100.00
47897;BME280;39629;51.400;5.494;2023-05-27T22:15:11;101930.78;;;12.02;100.00
47897;BME280;39629;51.400;5.494;2023-05-27T22:20:13;101931.44;;;11.74;100.00
47897;BME280;39629;51.400;5.494;2023-05-27T22:25:16;101933.16;;;11.69;100.00
47897;BME280;39629;51.400;5.494;2023-05-27T22:30:18;101933.19;;;11.77;100.00
47897;BME280;39629;51.400;5.494;2023-05-27T22:35:19;101925.28;;;11.77;100.00
47897;BME280;39629;51.400;5.494;2023-05-27T22:40:22;101929.94;;;11.17;100.00
47897;BME280;39629;51.400;5.494;2023-05-27T22:45:24;101929.78;;;11.06;100.00
47897;BME280;39629;51.400;5.494;2023-05-27T22:50:26;101934.38;;;11.22;100.00
47897;BME280;39629;51.400;5.494;2023-05-27T22:55:29;101931.59;;;11.10;100.00
47897;BME280;39629;51.400;5.494;2023-05-27T23:00:31;101928.13;;;11.14;100.00
47897;BME280;39629;51.400;5.494;2023-05-27T23:05:32;101917.56;;;11.11;100.00
47897;BME280;39629;51.400;5.494;2023-05-27T23:10:35;101920.81;;;10.88;100.00
47897;BME280;39629;51.400;5.494;2023-05-27T23:15:37;101917.34;;;10.93;100.00
47897;BME280;39629;51.400;5.494;2023-05-27T23:20:38;101912.97;;;10.95;100.00
47897;BME280;39629;51.400;5.494;2023-05-27T23:25:42;101905.84;;;10.87;100.00
47897;BME280;39629;51.400;5.494;2023-05-27T23:30:44;101901.38;;;10.83;100.00
47897;BME280;39629;51.400;5.494;2023-05-27T23:35:45;101897.41;;;10.50;100.00
47897;BME280;39629;51.400;5.494;2023-05-27T23:40:48;101890.84;;;10.20;100.00
47897;BME280;39629;51.400;5.494;2023-05-27T23:45:50;101885.44;;;10.11;100.00
47897;BME280;39629;51.400;5.494;2023-05-27T23:50:52;101891.41;;;10.01;100.00
47897;BME280;39629;51.400;5.494;2023-05-27T23:55:54;101888.94;;;10.12;100.00
